createdAt,value
2023-05-23T01:39:11.488Z,99.90
2023-05-23T01:41:39.880Z,99.90
2023-05-23T01:44:10.174Z,99.90
2023-05-23T01:46:44.388Z,99.90
2023-05-23T01:49:15.670Z,99.90
2023-05-23T01:51:44.586Z,99.90
2023-05-23T01:54:13.842Z,99.90
2023-05-23T01:56:43.138Z,99.90
2023-05-23T01:59:13.425Z,99.90
2023-05-23T02:01:42.639Z,99.90
2023-05-23T02:04:11.220Z,99.90
2023-05-23T02:06:41.781Z,99.90
2023-05-23T02:09:10.330Z,99.90
2023-05-23T02:11:38.624Z,99.90
2023-05-23T02:14:07.141Z,99.90
2023-05-23T02:16:37.021Z,99.90
2023-05-23T02:19:05.823Z,99.90
2023-05-23T02:21:35.504Z,99.90
2023-05-23T02:24:04.186Z,99.90
2023-05-23T02:26:32.820Z,99.90
2023-05-23T02:29:01.322Z,99.90
2023-05-23T02:31:29.818Z,99.90
2023-05-23T02:33:59.613Z,99.90
2023-05-23T02:36:28.059Z,99.90
2023-05-23T02:38:56.863Z,99.90
2023-05-23T02:41:25.303Z,99.90
2023-05-23T02:43:53.676Z,99.90
2023-05-23T02:46:22.951Z,99.90
2023-05-23T02:48:51.332Z,99.90
2023-05-23T02:51:21.458Z,99.90
2023-05-23T02:53:49.880Z,99.90
2023-05-23T02:56:18.948Z,99.90
2023-05-23T02:58:47.359Z,99.90
2023-05-23T04:21:03.116Z,99.90
2023-05-23T04:23:31.639Z,99.90
2023-05-23T04:26:00.221Z,99.90
2023-05-23T04:28:28.907Z,99.90
2023-05-23T04:30:58.596Z,99.90
2023-05-23T04:33:30.606Z,99.90
2023-05-23T04:35:59.084Z,99.90
2023-05-23T04:38:27.863Z,99.90
2023-05-23T04:40:57.341Z,99.90
2023-05-23T04:43:27.504Z,99.90
2023-05-23T04:45:56.089Z,99.90
2023-05-23T04:48:24.948Z,99.90
2023-05-23T04:50:56.185Z,99.90
2023-05-23T04:53:24.631Z,99.90
2023-05-23T04:58:21.909Z,99.90
2023-05-23T05:43:07.103Z,99.90
2023-05-23T06:10:24.722Z,99.90
2023-05-23T06:55:15.586Z,99.90
2023-05-23T06:57:44.000Z,99.90
2023-05-23T07:00:13.968Z,99.90
2023-05-23T07:02:42.455Z,99.90
2023-05-23T07:05:11.131Z,99.90
2023-05-23T07:07:39.557Z,99.90
2023-05-23T07:10:11.186Z,99.90
2023-05-23T07:12:39.803Z,99.90
2023-05-23T07:15:09.351Z,99.90
2023-05-23T07:17:37.731Z,99.90
2023-05-23T07:20:08.361Z,99.90
2023-05-23T07:22:36.860Z,99.90
2023-05-23T07:25:06.000Z,99.90
2023-05-23T07:27:35.862Z,99.90
2023-05-23T07:30:04.461Z,99.90
2023-05-23T07:32:32.965Z,99.90
2023-05-23T07:35:01.490Z,99.90
2023-05-23T07:37:29.948Z,99.90
2023-05-23T07:39:58.298Z,99.90
2023-05-23T07:42:26.774Z,99.90
2023-05-23T07:44:56.461Z,99.90
2023-05-23T07:47:25.286Z,99.90
2023-05-23T07:49:53.767Z,99.90
2023-05-23T07:52:22.121Z,99.90
2023-05-23T07:54:50.513Z,99.90
2023-05-23T07:57:18.945Z,99.90
2023-05-23T07:59:47.270Z,99.90
2023-05-23T08:02:17.174Z,99.90
2023-05-23T08:04:46.176Z,99.90
2023-05-23T08:07:15.060Z,99.90
2023-05-23T08:09:44.251Z,99.90
2023-05-23T08:12:12.716Z,99.90
2023-05-23T08:14:50.848Z,99.90
2023-05-23T08:17:21.843Z,99.90
2023-05-23T08:19:50.222Z,99.90
2023-05-23T08:22:18.752Z,99.90
2023-05-23T08:24:47.101Z,99.90
2023-05-23T08:27:15.661Z,99.90
2023-05-23T08:29:44.389Z,99.90
2023-05-23T08:32:13.719Z,99.90
2023-05-23T08:34:44.087Z,99.90
2023-05-23T08:37:12.418Z,99.90
2023-05-23T08:39:41.604Z,99.90
2023-05-23T08:42:10.024Z,99.90
2023-05-23T08:44:40.723Z,99.90
2023-05-23T08:47:10.308Z,99.90
2023-05-23T08:49:39.842Z,99.90
2023-05-23T08:52:17.513Z,99.90
2023-05-23T08:54:46.267Z,99.90
2023-05-23T08:57:14.612Z,99.90
2023-05-23T08:59:44.051Z,99.90
2023-05-23T09:02:13.128Z,99.90
2023-05-23T09:04:41.635Z,99.90
2023-05-23T09:07:12.911Z,99.90
2023-05-23T09:09:41.386Z,99.90
2023-05-23T09:12:10.421Z,99.90
2023-05-23T09:14:38.875Z,99.90
2023-05-23T09:17:07.260Z,99.90
2023-05-23T09:19:35.730Z,99.90
2023-05-23T09:22:04.878Z,99.90
2023-05-23T09:24:38.225Z,99.90
2023-05-23T09:27:08.097Z,99.90
2023-05-23T09:32:15.702Z,99.90
2023-05-23T09:34:44.580Z,99.90
2023-05-23T09:37:19.355Z,99.90
2023-05-23T09:39:51.790Z,99.90
2023-05-23T09:42:23.990Z,99.90
2023-05-23T09:44:52.619Z,99.90
2023-05-23T09:47:21.052Z,99.90
2023-05-23T09:49:49.645Z,99.90
2023-05-23T09:52:20.219Z,99.90
2023-05-23T09:54:50.999Z,99.90
2023-05-23T09:57:23.418Z,99.90
2023-05-23T09:59:55.362Z,99.90
2023-05-23T10:02:54.073Z,99.90
2023-05-23T10:05:34.411Z,99.90
2023-05-23T10:08:07.547Z,99.90
2023-05-23T10:23:15.136Z,99.90
2023-05-23T10:25:45.741Z,99.90
2023-05-23T10:28:16.290Z,99.90
2023-05-23T10:30:45.666Z,99.90
2023-05-23T10:33:17.349Z,99.90
2023-05-23T10:35:54.971Z,99.90
2023-05-23T10:38:33.164Z,99.90
2023-05-23T10:41:12.857Z,99.90
2023-05-23T10:43:50.892Z,99.90
2023-05-23T10:46:22.750Z,99.90
2023-05-23T10:48:57.969Z,99.90
2023-05-23T10:51:26.841Z,99.90
2023-05-23T10:53:56.227Z,99.90
2023-05-23T10:56:26.720Z,99.90
2023-05-23T10:58:58.601Z,99.90
2023-05-23T11:01:28.646Z,99.90
2023-05-23T11:03:57.397Z,99.90
2023-05-23T11:06:33.946Z,99.90
2023-05-23T11:09:07.575Z,99.90
2023-05-23T11:12:06.000Z,99.90
2023-05-23T11:14:55.866Z,99.90
2023-05-23T11:17:34.865Z,99.90
2023-05-23T11:20:07.342Z,99.90
2023-05-23T11:22:37.019Z,99.90
2023-05-23T11:25:10.537Z,99.90
2023-05-23T11:27:41.941Z,99.90
2023-05-23T11:30:13.872Z,99.90
2023-05-23T11:32:43.511Z,99.90
2023-05-23T11:35:12.608Z,99.90
2023-05-23T11:37:41.641Z,99.90
2023-05-23T11:40:33.009Z,99.90
2023-05-23T11:43:05.235Z,99.90
2023-05-23T11:45:35.500Z,99.90
2023-05-23T11:48:08.658Z,99.90
2023-05-23T11:50:46.082Z,99.90
2023-05-23T11:53:17.168Z,99.90
2023-05-23T11:55:50.980Z,99.90
2023-05-23T11:58:21.591Z,99.90
2023-05-23T12:00:50.195Z,99.90
2023-05-23T12:03:19.194Z,99.90
2023-05-23T12:05:47.774Z,99.90
2023-05-23T12:08:16.235Z,99.90
2023-05-23T12:10:52.776Z,99.90
2023-05-23T12:13:26.253Z,99.90
2023-05-23T12:15:58.708Z,99.90
2023-05-23T12:18:30.472Z,99.90
2023-05-23T12:21:03.125Z,99.90
2023-05-23T12:23:34.459Z,99.90
2023-05-23T12:26:07.077Z,99.90
2023-05-23T12:28:42.454Z,99.90
2023-05-23T12:31:13.531Z,99.90
2023-05-23T12:33:44.095Z,99.90
2023-05-23T12:36:13.305Z,99.90
2023-05-23T12:38:45.368Z,99.90
2023-05-23T12:41:16.704Z,99.90
2023-05-23T12:43:53.213Z,99.90
2023-05-23T12:46:24.175Z,99.90
2023-05-23T12:48:52.983Z,99.90
2023-05-23T12:51:22.233Z,99.90
2023-05-23T12:53:50.694Z,99.90
2023-05-23T12:56:19.344Z,99.90
2023-05-23T13:01:18.145Z,99.90
2023-05-23T13:03:46.613Z,99.90
2023-05-23T13:06:15.025Z,99.90
2023-05-23T13:08:44.292Z,99.90
2023-05-23T13:11:12.811Z,99.90
2023-05-23T13:21:09.319Z,99.90
2023-05-23T13:23:39.010Z,99.90
2023-05-23T13:26:08.061Z,99.90
2023-05-23T13:28:36.552Z,99.90
2023-05-23T13:31:04.949Z,99.90
2023-05-23T13:33:33.438Z,99.90
2023-05-23T13:36:03.192Z,99.90
2023-05-23T13:38:32.370Z,99.90
2023-05-23T13:41:03.010Z,99.90
2023-05-23T13:43:31.512Z,99.10
2023-05-23T13:46:01.228Z,99.50
2023-05-23T13:48:29.732Z,99.90
2023-05-23T13:50:58.137Z,99.70
2023-05-23T13:53:27.925Z,99.60
2023-05-23T13:55:56.295Z,99.90
2023-05-23T13:58:24.625Z,99.70
2023-05-23T14:00:53.211Z,99.80
2023-05-23T14:03:24.589Z,99.80
2023-05-23T14:05:53.201Z,99.90
2023-05-23T14:08:21.667Z,98.20
2023-05-23T14:10:52.467Z,99.20
2023-05-23T14:13:22.018Z,99.10
2023-05-23T14:15:51.061Z,98.80
2023-05-23T14:18:20.006Z,98.40
2023-05-23T14:20:48.449Z,98.80
2023-05-23T14:23:16.874Z,99.80
2023-05-23T14:25:46.263Z,99.60
2023-05-23T14:28:16.556Z,99.60
2023-05-23T14:30:45.729Z,99.90
2023-05-23T14:33:15.173Z,99.90
2023-05-23T14:35:44.022Z,99.60
2023-05-23T14:38:12.619Z,99.90
2023-05-23T14:40:41.175Z,99.00
2023-05-23T14:43:09.637Z,99.90
2023-05-23T14:45:39.615Z,99.90
2023-05-23T14:48:08.805Z,99.50
2023-05-23T14:50:37.394Z,99.50
2023-05-23T14:53:06.020Z,98.70
2023-05-23T14:55:34.338Z,98.90
2023-05-23T14:58:03.630Z,99.50
2023-05-23T15:00:32.434Z,99.10
2023-05-23T15:03:02.218Z,98.90
2023-05-23T15:05:30.790Z,99.00
2023-05-23T15:07:59.191Z,99.50
2023-05-23T15:10:27.740Z,98.80
2023-05-23T15:12:56.157Z,99.10
2023-05-23T15:15:24.692Z,99.70
2023-05-23T15:17:53.142Z,99.80
2023-05-23T15:20:22.965Z,99.90
2023-05-23T15:22:51.629Z,99.00
2023-05-23T15:25:30.282Z,98.90
2023-05-23T15:28:07.096Z,98.60
2023-05-23T15:30:36.352Z,98.80
2023-05-23T15:33:05.304Z,98.10
2023-05-23T15:35:35.519Z,98.30
2023-05-23T15:38:03.858Z,98.10
2023-05-23T15:40:32.244Z,98.20
2023-05-23T15:43:00.783Z,98.00
2023-05-23T15:45:29.286Z,97.90
2023-05-23T15:47:57.619Z,98.50
2023-05-23T15:50:26.127Z,98.40
2023-05-23T15:52:55.838Z,99.00
2023-05-23T15:55:24.174Z,98.60
2023-05-23T15:57:52.585Z,98.30
2023-05-23T16:00:22.112Z,98.80
2023-05-23T16:02:50.607Z,98.70
2023-05-23T16:05:19.133Z,98.10
2023-05-23T16:07:50.102Z,98.60
2023-05-23T16:10:20.461Z,98.90
2023-05-23T16:12:48.863Z,99.20
2023-05-23T16:15:17.318Z,98.40
2023-05-23T16:17:46.010Z,97.80
2023-05-23T16:20:16.688Z,98.70
2023-05-23T16:22:45.931Z,99.10
2023-05-23T16:25:14.393Z,99.10
2023-05-23T16:27:44.140Z,99.10
2023-05-23T16:30:12.981Z,99.40
2023-05-23T16:32:41.447Z,99.90
2023-05-23T16:35:11.173Z,99.90
2023-05-23T16:37:39.801Z,99.90
2023-05-23T16:40:09.492Z,99.90
2023-05-23T16:42:38.329Z,99.90
2023-05-23T16:45:09.442Z,99.90
2023-05-23T16:47:37.960Z,99.90
2023-05-23T16:50:08.374Z,99.90
2023-05-23T16:52:36.746Z,99.90
2023-05-23T16:55:05.666Z,99.90
2023-05-23T16:57:34.046Z,99.90
2023-05-23T17:00:05.420Z,99.90
2023-05-23T17:02:35.222Z,99.90
2023-05-23T17:05:03.963Z,99.90
2023-05-23T17:07:32.742Z,99.90
2023-05-23T17:10:01.095Z,99.90
2023-05-23T17:12:29.495Z,99.90
2023-05-23T17:14:57.826Z,99.90
2023-05-23T17:17:26.270Z,99.90
2023-05-23T18:24:38.161Z,99.90
2023-05-23T18:27:08.364Z,99.90
2023-05-23T18:29:37.440Z,99.90
2023-05-23T18:32:08.178Z,99.90
2023-05-23T18:34:36.633Z,99.90
2023-05-23T18:37:05.364Z,99.90
2023-05-23T18:39:33.853Z,99.90
2023-05-23T18:42:02.296Z,99.90
2023-05-23T18:44:33.292Z,99.90
2023-05-23T18:47:01.854Z,99.90
2023-05-23T18:49:30.412Z,99.90
2023-05-23T18:51:58.816Z,99.90
2023-05-23T18:54:27.186Z,99.90
2023-05-23T18:56:55.890Z,99.90
2023-05-23T18:59:24.402Z,99.90
2023-05-23T19:01:55.382Z,99.90
2023-05-23T19:04:23.796Z,99.90
2023-05-23T19:06:55.013Z,99.90
2023-05-23T19:09:23.480Z,99.90
2023-05-23T19:11:52.085Z,99.90
2023-05-23T19:16:49.412Z,99.90
2023-05-23T19:49:13.720Z,99.90
2023-05-23T19:51:42.109Z,99.90
2023-05-23T19:54:13.757Z,99.90
2023-05-23T19:56:42.249Z,99.90
2023-05-23T19:59:13.748Z,99.90
2023-05-23T20:01:42.341Z,99.90
2023-05-23T20:04:12.892Z,99.90
2023-05-23T20:06:42.185Z,99.90
2023-05-23T20:09:12.037Z,99.90
2023-05-23T20:11:40.417Z,99.90
2023-05-23T20:14:11.145Z,99.90
2023-05-23T20:16:39.605Z,99.90
2023-05-23T20:19:08.279Z,99.90
2023-05-23T20:21:39.028Z,99.90
2023-05-23T20:24:07.742Z,99.90
2023-05-23T20:26:37.513Z,99.90
2023-05-23T20:29:07.141Z,99.90
2023-05-23T20:31:37.189Z,99.90
2023-05-23T20:34:05.548Z,99.90
2023-05-23T20:36:34.128Z,99.90
2023-05-23T20:39:02.550Z,99.90
2023-05-23T20:41:30.982Z,99.90
2023-05-23T20:44:01.920Z,99.90
2023-05-23T20:46:31.345Z,99.90
2023-05-23T20:48:59.732Z,99.90
2023-05-23T20:51:28.140Z,99.90
2023-05-23T20:53:56.576Z,99.90
2023-05-23T20:56:24.965Z,99.90
2023-05-23T20:58:53.517Z,99.90
2023-05-23T21:01:23.689Z,99.90
2023-05-23T21:03:52.131Z,99.90
2023-05-23T21:06:20.540Z,99.90
2023-05-23T21:33:42.706Z,99.90
2023-05-23T21:36:12.445Z,99.90
2023-05-23T21:41:09.640Z,99.90
2023-05-23T21:43:38.038Z,99.90
2023-05-23T21:46:06.533Z,99.90
2023-05-23T21:48:34.913Z,99.90
2023-05-23T21:51:03.253Z,99.90
2023-05-23T21:53:36.264Z,99.90
2023-05-23T21:56:04.850Z,99.90
2023-05-23T22:18:40.334Z,99.90
2023-05-23T22:21:19.157Z,99.90
2023-05-23T22:23:47.663Z,99.90
2023-05-23T22:26:17.775Z,99.90
2023-05-23T22:28:46.706Z,99.90
2023-05-23T22:31:15.498Z,99.90
2023-05-23T22:33:44.340Z,99.90
2023-05-23T22:36:12.865Z,99.90
2023-05-23T22:38:41.262Z,99.90
2023-05-23T22:41:09.640Z,99.90
2023-05-23T22:43:41.588Z,99.90
2023-05-23T22:46:09.998Z,99.90
2023-05-23T22:48:39.497Z,99.90
2023-05-23T22:51:12.519Z,99.90
2023-05-23T22:53:41.300Z,99.90
2023-05-23T22:56:09.675Z,99.90
2023-05-23T22:58:39.476Z,99.90
2023-05-23T23:01:07.835Z,99.90
2023-05-23T23:03:36.351Z,99.90
2023-05-23T23:06:06.470Z,99.90
2023-05-23T23:08:35.468Z,99.90
2023-05-23T23:11:04.271Z,99.90
2023-05-23T23:13:32.662Z,99.90
2023-05-23T23:16:02.341Z,99.90
2023-05-23T23:18:30.762Z,99.90
2023-05-23T23:20:59.334Z,99.90
2023-05-23T23:23:27.701Z,99.90
2023-05-23T23:25:56.278Z,99.90
2023-05-23T23:28:24.641Z,99.90
2023-05-23T23:30:53.034Z,99.90
2023-05-23T23:33:22.785Z,99.90
2023-05-23T23:40:48.938Z,99.90
2023-05-23T23:43:17.473Z,99.90
2023-05-23T23:45:46.309Z,99.90
2023-05-23T23:48:15.050Z,99.90
2023-05-23T23:50:45.009Z,99.90
2023-05-23T23:53:13.667Z,99.90
2023-05-23T23:55:42.437Z,99.90
2023-05-23T23:58:10.906Z,99.90
